Time;durP1;ratioP1;P1;durP2;ratioP2;P2;SDS_P1;SDS_P2;PMS_P1;PMS_P2;Temp;Humidity;BMP_temperature;BMP_pressure;BME280_temperature;BME280_humidity;BME280_pressure;Samples;Min_cycle;Max_cycle;Signal;HPM_P1;HPM_P2
2022/03/02 00:02:22;;;;;;;;;;;1.20;49.60;;;-0.44;45.38;96819.94;4971178;28;19926;-68
2022/03/02 00:04:48;;;;;;;;;;;1.20;49.80;;;-0.48;45.26;96813.31;4969925;28;20224;-67
2022/03/02 00:07:14;;;;;;;;;;;1.20;50.30;;;-0.51;45.33;96810.94;4936586;28;19922;-67
2022/03/02 00:09:40;;;;;;;;;;;1.10;50.30;;;-0.54;45.45;96811.16;4971167;28;19921;-68
2022/03/02 00:12:06;;;;;;;;;;;1.20;50.10;;;-0.55;45.69;96809.50;4963041;28;19929;-68
2022/03/02 00:14:31;;;;;;;;;;;1.20;50.40;;;-0.56;45.35;96797.50;4969583;28;19933;-68
2022/03/02 00:16:57;;;;;;;;;;;1.20;50.00;;;-0.56;45.34;96793.16;4969954;28;19922;-68
2022/03/02 00:19:23;;;;;;;;;;;1.10;50.00;;;-0.56;45.53;96787.16;4968573;28;20506;-68
2022/03/02 00:21:49;;;;;;;;;;;1.20;49.80;;;-0.57;45.13;96780.34;4985565;28;19961;-68
2022/03/02 00:24:14;;;;;;;;;;;1.20;49.90;;;-0.56;45.15;96784.59;4968838;28;20378;-67
2022/03/02 00:26:40;;;;;;;;;;;1.20;49.60;;;-0.54;45.38;96788.72;4985490;28;19922;-67
2022/03/02 00:29:06;;;;;;;;;;;1.30;49.30;;;-0.53;45.28;96784.38;4968616;28;19937;-68
2022/03/02 00:31:32;;;;;;;;;;;1.30;49.50;;;-0.53;44.76;96786.97;5001282;23;20397;-63
2022/03/02 00:33:57;;;;;;;;;;;1.20;49.10;;;-0.54;44.67;96786.13;5000614;28;19936;-61
2022/03/02 00:36:23;;;;;;;;;;;1.30;49.00;;;-0.55;45.00;96796.56;5007782;28;19929;-61
2022/03/02 00:38:49;;;;;;;;;;;1.20;48.90;;;-0.56;45.01;96782.00;5008618;28;19921;-61
2022/03/02 00:41:14;;;;;;;;;;;1.30;49.30;;;-0.55;45.73;96783.66;5011393;28;19917;-61
2022/03/02 00:43:40;;;;;;;;;;;1.20;49.40;;;-0.58;44.97;96786.44;4995214;28;19949;-61
2022/03/02 00:46:06;;;;;;;;;;;1.20;49.30;;;-0.60;45.53;96780.56;4972327;28;19921;-61
2022/03/02 00:48:32;;;;;;;;;;;1.20;49.80;;;-0.61;45.69;96787.50;4973676;28;19926;-61
2022/03/02 00:50:57;;;;;;;;;;;1.20;50.10;;;-0.66;45.67;96782.63;4972998;28;19922;-60
2022/03/02 00:53:23;;;;;;;;;;;1.10;50.30;;;-0.68;46.01;96784.50;4977471;28;19926;-61
2022/03/02 00:55:49;;;;;;;;;;;1.10;50.70;;;-0.73;46.41;96778.78;4977622;28;19926;-60
2022/03/02 00:58:14;;;;;;;;;;;1.00;51.00;;;-0.75;46.58;96772.91;4977492;28;20401;-61
2022/03/02 01:00:40;;;;;;;;;;;1.00;51.20;;;-0.76;45.43;96779.00;4985430;28;19926;-60
2022/03/02 01:03:06;;;;;;;;;;;1.00;50.00;;;-0.77;45.11;96776.53;4987213;28;19922;-62
2022/03/02 01:05:31;;;;;;;;;;;1.00;49.90;;;-0.79;46.56;96774.03;4971360;28;19952;-60
2022/03/02 01:07:57;;;;;;;;;;;1.00;51.30;;;-0.85;46.99;96764.13;4980280;28;19930;-60
2022/03/02 01:10:23;;;;;;;;;;;0.90;52.00;;;-0.87;46.95;96765.16;4980147;28;19929;-61
2022/03/02 01:12:48;;;;;;;;;;;0.80;52.60;;;-0.95;47.52;96775.97;4971102;28;19922;-61
2022/03/02 01:15:14;;;;;;;;;;;0.80;52.50;;;-1.01;47.10;96772.06;4967625;28;19918;-61
2022/03/02 01:17:40;;;;;;;;;;;0.60;52.90;;;-1.08;47.24;96780.31;4953864;28;20298;-62
2022/03/02 01:20:07;;;;;;;;;;;0.60;53.40;;;-1.20;49.29;96786.28;4948679;28;19922;-62
2022/03/02 01:22:33;;;;;;;;;;;0.40;54.50;;;-1.33;48.48;96784.50;4980506;28;20439;-61
2022/03/02 01:24:58;;;;;;;;;;;0.30;56.00;;;-1.46;50.37;96781.03;4938190;28;19922;-61
2022/03/02 01:27:24;;;;;;;;;;;0.10;56.80;;;-1.52;50.84;96783.19;4981102;28;19926;-62
2022/03/02 01:29:51;;;;;;;;;;;0.10;57.30;;;-1.62;50.66;96770.88;4966253;28;19928;-62
2022/03/02 01:32:16;;;;;;;;;;;0.10;57.20;;;-1.67;50.31;96761.78;4987809;28;20004;-62
2022/03/02 01:34:42;;;;;;;;;;;0.00;57.10;;;-1.70;50.13;96762.78;4955844;28;20008;-61
2022/03/02 01:37:08;;;;;;;;;;;0.00;57.20;;;-1.71;50.98;96760.31;4978350;28;19937;-62
2022/03/02 01:39:33;;;;;;;;;;;0.00;57.10;;;-1.75;50.92;96761.44;4982395;28;19921;-62
2022/03/02 01:41:59;;;;;;;;;;;0.00;57.40;;;-1.78;50.76;96751.31;4985382;28;19925;-62
2022/03/02 01:44:25;;;;;;;;;;;0.00;57.20;;;-1.79;51.00;96747.09;4995577;28;19932;-62
2022/03/02 01:46:50;;;;;;;;;;;0.00;57.10;;;-1.80;49.49;96737.72;4970774;28;20325;-61
2022/03/02 01:49:16;;;;;;;;;;;0.00;56.20;;;-1.80;49.64;96740.28;4985345;28;19922;-61
2022/03/02 01:51:42;;;;;;;;;;;0.10;55.70;;;-1.78;49.61;96749.56;4978429;28;19925;-62
2022/03/02 01:54:08;;;;;;;;;;;0.10;55.40;;;-1.77;50.12;96750.41;4970622;28;19922;-62
2022/03/02 01:56:33;;;;;;;;;;;0.00;56.40;;;-1.82;50.49;96752.41;4951006;28;19929;-61
2022/03/02 01:58:59;;;;;;;;;;;0.00;57.50;;;-1.85;51.19;96749.09;4986619;28;20274;-61
2022/03/02 02:01:25;;;;;;;;;;;0.00;57.80;;;-1.90;50.69;96743.44;4991061;28;20370;-62
2022/03/02 02:03:50;;;;;;;;;;;0.00;57.40;;;-1.93;50.95;96738.47;4989836;28;19952;-62
2022/03/02 02:06:16;;;;;;;;;;;0.00;57.10;;;-1.96;51.35;96736.09;4968690;28;19985;-62
2022/03/02 02:08:42;;;;;;;;;;;-3276.70;57.10;;;-1.98;51.24;96732.78;4988637;28;19922;-61
2022/03/02 02:11:09;;;;;;;;;;;-3276.70;57.00;;;-1.97;51.10;96721.53;4970481;28;19922;-62
2022/03/02 02:13:34;;;;;;;;;;;-3276.70;56.80;;;-1.97;51.65;96718.97;4986370;28;19998;-62
2022/03/02 02:16:00;;;;;;;;;;;0.00;56.80;;;-1.99;50.54;96720.81;4978702;28;19926;-61
2022/03/02 02:18:26;;;;;;;;;;;-3276.70;56.50;;;-2.00;50.33;96723.50;4954826;28;19933;-62
2022/03/02 02:20:51;;;;;;;;;;;-3276.70;56.40;;;-2.00;50.55;96729.47;4979109;28;19917;-62
2022/03/02 02:23:17;;;;;;;;;;;0.00;56.40;;;-2.01;50.00;96724.41;4958290;28;20606;-61
2022/03/02 02:25:43;;;;;;;;;;;0.00;56.10;;;-1.99;49.97;96715.66;4965896;28;19926;-63
2022/03/02 02:28:10;;;;;;;;;;;0.00;55.80;;;-1.97;49.75;96724.13;4980486;28;20341;-66
2022/03/02 02:30:36;;;;;;;;;;;0.00;55.40;;;-1.99;50.74;96722.56;4987774;28;19921;-66
2022/03/02 02:33:01;;;;;;;;;;;-3276.70;56.60;;;-2.03;51.61;96716.78;4990393;28;19930;-68
2022/03/02 02:35:27;;;;;;;;;;;-3276.70;57.20;;;-2.05;51.23;96712.63;4964852;28;19948;-66
2022/03/02 02:37:53;;;;;;;;;;;-3276.60;57.20;;;-2.09;51.49;96716.31;4957909;28;20289;-66
2022/03/02 02:40:19;;;;;;;;;;;-3276.60;57.60;;;-2.12;50.76;96704.44;4947890;28;19929;-66
2022/03/02 02:42:45;;;;;;;;;;;-3276.60;56.60;;;-2.13;51.55;96691.66;4983968;28;19999;-66
2022/03/02 02:45:15;;;;;;;;;;;-3276.70;56.00;;;-2.12;50.96;96694.16;4969739;28;20350;-66
2022/03/02 02:47:41;;;;;;;;;;;-3276.70;55.30;;;-2.13;49.39;96692.50;4973240;28;19929;-66
2022/03/02 02:50:20;;;;;;;;;;;-3276.60;54.80;;;-2.14;49.09;96685.69;4988627;28;20297;-66
2022/03/02 02:52:46;;;;;;;;;;;-3276.60;54.60;;;-2.12;49.40;96689.00;4973492;28;20448;-66
2022/03/02 02:55:12;;;;;;;;;;;-3276.60;54.30;;;-2.12;48.88;96678.69;4973659;28;19928;-65
2022/03/02 02:57:38;;;;;;;;;;;-3276.70;54.30;;;-2.11;49.14;96682.09;4981283;28;19922;-67
2022/03/02 03:00:06;;;;;;;;;;;-3276.70;54.20;;;-2.09;49.35;96675.91;4974054;28;19930;-66
2022/03/02 03:02:31;;;;;;;;;;;-3276.70;54.40;;;-2.12;49.64;96678.69;4989685;28;19992;-66
2022/03/02 03:04:57;;;;;;;;;;;-3276.70;54.70;;;-2.09;50.18;96678.47;4976726;28;19930;-65
2022/03/02 03:07:22;;;;;;;;;;;-3276.70;55.20;;;-2.08;49.92;96677.56;4976118;28;20291;-66
2022/03/02 03:09:48;;;;;;;;;;;-3276.70;55.40;;;-2.08;50.04;96677.56;4979926;28;19922;-65
2022/03/02 03:12:14;;;;;;;;;;;-3276.70;55.50;;;-2.08;50.44;96680.13;4982126;28;20378;-66
2022/03/02 03:14:39;;;;;;;;;;;-3276.70;55.40;;;-2.10;50.41;96676.00;4989049;28;19928;-66
2022/03/02 03:17:05;;;;;;;;;;;-3276.60;55.50;;;-2.09;50.10;96678.47;4979357;28;19933;-66
2022/03/02 03:19:31;;;;;;;;;;;-3276.60;55.90;;;-2.10;50.68;96679.41;4974674;28;20654;-65
2022/03/02 03:22:07;;;;;;;;;;;-3276.70;55.90;;;-2.10;49.99;96676.84;4989236;28;19998;-66
2022/03/02 03:24:33;;;;;;;;;;;-3276.70;55.70;;;-2.13;50.28;96679.59;4985092;28;20038;-67
2022/03/02 03:26:59;;;;;;;;;;;-3276.70;55.90;;;-2.14;50.37;96675.38;4956097;28;19926;-66
2022/03/02 03:29:25;;;;;;;;;;;-3276.60;56.20;;;-2.13;50.81;96671.88;4988704;28;19922;-65
2022/03/02 03:31:50;;;;;;;;;;;-3276.60;56.10;;;-2.15;50.79;96668.56;4975263;28;19936;-66
2022/03/02 03:34:16;;;;;;;;;;;-3276.60;56.30;;;-2.15;50.89;96671.16;4950054;28;19929;-66
2022/03/02 03:36:42;;;;;;;;;;;-3276.60;56.30;;;-2.19;50.89;96664.53;4987189;28;19922;-66
2022/03/02 03:39:08;;;;;;;;;;;-3276.60;56.10;;;-2.19;50.57;96670.53;4990024;28;19918;-66
2022/03/02 03:41:34;;;;;;;;;;;-3276.60;55.90;;;-2.20;51.09;96675.78;4985065;28;19973;-66
2022/03/02 03:43:59;;;;;;;;;;;-3276.60;56.10;;;-2.23;50.77;96671.63;4993769;28;19925;-66
2022/03/02 03:46:25;;;;;;;;;;;-3276.60;56.30;;;-2.23;52.52;96666.50;4974398;28;19929;-66
2022/03/02 03:48:51;;;;;;;;;;;-3276.60;57.50;;;-2.23;51.72;96671.63;4988740;28;20374;-67
2022/03/02 03:51:19;;;;;;;;;;;-3276.60;56.90;;;-2.27;51.02;96670.16;4972513;28;19941;-66
2022/03/02 03:53:44;;;;;;;;;;;-3276.50;56.40;;;-2.30;50.29;96672.09;4990039;28;20011;-66
2022/03/02 03:56:10;;;;;;;;;;;-3276.40;56.30;;;-2.34;51.00;96670.66;4988091;28;19925;-66
2022/03/02 03:58:36;;;;;;;;;;;-3276.30;56.60;;;-2.37;50.86;96670.84;4960699;28;19922;-66
2022/03/02 04:01:02;;;;;;;;;;;-3276.40;56.40;;;-2.40;50.61;96668.47;4973454;28;19921;-69
2022/03/02 04:03:28;;;;;;;;;;;-3276.40;56.70;;;-2.42;51.22;96665.16;4971626;28;19918;-66
2022/03/02 04:05:53;;;;;;;;;;;-3276.30;56.80;;;-2.43;51.62;96668.66;4967094;28;19933;-66
2022/03/02 04:08:20;;;;;;;;;;;-3276.40;57.30;;;-2.45;52.24;96665.34;4989715;28;19945;-66
2022/03/02 04:10:45;;;;;;;;;;;-3276.40;57.50;;;-2.45;52.23;96668.75;4985452;28;20342;-66
2022/03/02 04:13:12;;;;;;;;;;;-3276.40;58.30;;;-2.43;52.47;96671.22;4989455;28;19930;-66
2022/03/02 04:15:38;;;;;;;;;;;-3276.40;57.80;;;-2.45;51.55;96660.19;4971832;28;20005;-66
2022/03/02 04:18:06;;;;;;;;;;;-3276.40;57.00;;;-2.45;52.18;96661.03;4989118;28;19922;-66
2022/03/02 04:20:35;;;;;;;;;;;-3276.30;57.10;;;-2.49;52.05;96657.81;4980148;28;19928;-66
2022/03/02 04:23:01;;;;;;;;;;;-3276.30;57.50;;;-2.54;52.26;96646.94;4960357;28;20354;-66
2022/03/02 04:25:26;;;;;;;;;;;-3276.30;57.90;;;-2.54;52.54;96652.09;4951060;28;19926;-66
2022/03/02 04:27:52;;;;;;;;;;;-3276.30;58.20;;;-2.53;52.67;96642.63;4953422;28;19922;-66
2022/03/02 04:30:18;;;;;;;;;;;-3276.40;58.40;;;-2.51;52.70;96639.03;4975744;28;19924;-66
2022/03/02 04:32:44;;;;;;;;;;;-3276.40;58.30;;;-2.49;52.95;96639.78;4980985;28;19922;-66
2022/03/02 04:35:11;;;;;;;;;;;-3276.40;58.30;;;-2.48;52.70;96638.88;4962741;28;19944;-66
2022/03/02 04:37:37;;;;;;;;;;;-3276.40;57.90;;;-2.49;52.87;96634.63;4973805;28;19954;-68
2022/03/02 04:40:05;;;;;;;;;;;-3276.40;58.10;;;-2.48;52.86;96631.13;4973833;28;19945;-68
2022/03/02 04:42:30;;;;;;;;;;;-3276.40;58.40;;;-2.49;52.54;96634.63;4975351;28;19921;-67
2022/03/02 04:44:56;;;;;;;;;;;-3276.30;57.70;;;-2.48;52.21;96635.47;4988253;28;19925;-68
2022/03/02 04:47:21;;;;;;;;;;;-3276.40;57.90;;;-2.48;52.41;96638.88;4978060;28;19929;-65
2022/03/02 04:49:47;;;;;;;;;;;-3276.40;57.80;;;-2.51;52.59;96635.63;4996486;28;19921;-66
2022/03/02 04:52:13;;;;;;;;;;;-3276.40;57.60;;;-2.49;52.15;96641.50;4991299;28;19918;-65
2022/03/02 04:57:23;;;;;;;;;;;-3276.40;58.00;;;-2.50;53.64;96630.38;4984563;28;20037;-65
2022/03/02 04:59:49;;;;;;;;;;;-3276.40;58.60;;;-2.51;53.38;96631.31;4989693;28;19917;-65
2022/03/02 05:02:15;;;;;;;;;;;-3276.40;59.20;;;-2.49;53.62;96634.63;4988915;28;19918;-65
2022/03/02 05:04:41;;;;;;;;;;;-3276.40;59.10;;;-2.52;54.46;96624.50;4980199;28;19926;-65
2022/03/02 05:07:06;;;;;;;;;;;-3276.40;59.30;;;-2.53;53.99;96632.31;4983609;28;19925;-65
2022/03/02 05:09:32;;;;;;;;;;;-3276.40;59.30;;;-2.52;54.46;96628.81;4997711;28;19921;-65
2022/03/02 05:11:58;;;;;;;;;;;-3276.40;59.30;;;-2.53;53.86;96622.84;4991428;28;19984;-66
2022/03/02 05:14:23;;;;;;;;;;;-3276.50;59.20;;;-2.51;53.31;96626.16;4987313;28;20401;-65
2022/03/02 05:16:49;;;;;;;;;;;-3276.40;59.10;;;-2.52;54.22;96624.50;4986808;28;20033;-65
2022/03/02 05:19:15;;;;;;;;;;;-3276.40;59.40;;;-2.54;54.57;96618.63;4968842;28;19919;-64
2022/03/02 05:21:40;;;;;;;;;;;-3276.40;59.80;;;-2.55;54.02;96623.88;4985950;28;20329;-65
2022/03/02 05:24:06;;;;;;;;;;;-3276.40;59.80;;;-2.53;54.03;96627.16;4952580;28;19918;-65
2022/03/02 05:26:33;;;;;;;;;;;-3276.40;59.70;;;-2.52;54.72;96628.81;4967035;28;19926;-65
2022/03/02 05:28:58;;;;;;;;;;;-3276.40;59.80;;;-2.52;54.81;96623.66;4955997;28;19921;-65
2022/03/02 05:31:24;;;;;;;;;;;-3276.50;60.00;;;-2.51;54.24;96626.16;4988616;28;19928;-65
2022/03/02 05:33:51;;;;;;;;;;;-3276.50;59.80;;;-2.52;54.98;96624.50;4992636;28;19922;-66
2022/03/02 05:36:18;;;;;;;;;;;-3276.50;59.80;;;-2.49;54.52;96629.47;4972460;28;19921;-65
2022/03/02 05:38:43;;;;;;;;;;;-3276.50;59.70;;;-2.48;54.70;96628.56;4966482;28;20012;-66
2022/03/02 05:41:09;;;;;;;;;;;-3276.50;59.60;;;-2.47;54.54;96627.63;4956930;28;19964;-65
2022/03/02 05:43:35;;;;;;;;;;;-3276.50;59.40;;;-2.44;54.25;96630.94;4984807;28;19918;-65
2022/03/02 05:46:00;;;;;;;;;;;-3276.60;59.20;;;-2.42;54.19;96627.34;4974970;28;20278;-65
2022/03/02 05:48:29;;;;;;;;;;;-3276.60;58.80;;;-2.39;53.82;96629.72;4975710;28;19976;-65
2022/03/02 05:50:55;;;;;;;;;;;-3276.60;58.90;;;-2.38;54.85;96620.25;4991022;28;19922;-67
2022/03/02 05:53:20;;;;;;;;;;;-3276.60;59.30;;;-2.36;54.76;96618.38;4975195;28;19975;-69
2022/03/02 05:55:46;;;;;;;;;;;-3276.60;60.00;;;-2.40;56.12;96606.63;4992281;28;19925;-68
2022/03/02 05:58:12;;;;;;;;;;;-3276.60;61.10;;;-2.38;56.22;96612.50;4992215;28;20263;-68
2022/03/02 06:00:37;;;;;;;;;;;-3276.60;61.80;;;-2.39;56.73;96610.88;4963951;28;19924;-68
2022/03/02 06:03:03;;;;;;;;;;;-3276.60;62.40;;;-2.36;57.34;96613.25;4958451;28;19925;-68
2022/03/02 06:05:29;;;;;;;;;;;-3276.60;62.80;;;-2.36;56.82;96608.09;4990963;28;19925;-68
2022/03/02 06:07:54;;;;;;;;;;;-3276.60;62.60;;;-2.33;57.06;96615.63;4975639;28;19929;-67
2022/03/02 06:10:20;;;;;;;;;;;-3276.60;62.70;;;-2.33;57.25;96600.16;4989096;28;19926;-67
2022/03/02 06:12:46;;;;;;;;;;;-3276.70;62.70;;;-2.30;57.21;96597.38;4986940;28;20020;-65
2022/03/02 06:15:12;;;;;;;;;;;0.00;62.50;;;-2.28;57.36;96592.97;5000822;28;19917;-65
2022/03/02 06:17:39;;;;;;;;;;;0.00;62.00;;;-2.22;58.13;96600.31;4948809;28;20386;-64
2022/03/02 06:20:05;;;;;;;;;;;0.00;61.90;;;-2.19;56.47;96600.13;4988048;28;20067;-64
2022/03/02 06:22:31;;;;;;;;;;;0.00;61.30;;;-2.16;56.39;96599.91;4991606;28;19933;-65
2022/03/02 06:24:58;;;;;;;;;;;0.10;61.00;;;-2.15;55.90;96606.72;4967910;28;19978;-66
2022/03/02 06:27:24;;;;;;;;;;;0.10;60.50;;;-2.12;55.35;96611.69;4990596;28;19988;-63
2022/03/02 06:29:49;;;;;;;;;;;0.10;59.90;;;-2.07;55.58;96614.78;4997904;28;19925;-65
2022/03/02 06:32:15;;;;;;;;;;;0.10;60.10;;;-2.06;56.04;96621.56;5005136;28;20109;-64
2022/03/02 06:34:41;;;;;;;;;;;0.20;60.60;;;-2.05;56.19;96622.41;4989735;28;20379;-65
2022/03/02 06:37:07;;;;;;;;;;;0.10;61.10;;;-2.05;55.75;96622.41;4979203;28;20305;-65
2022/03/02 06:39:33;;;;;;;;;;;0.10;60.80;;;-2.05;55.64;96618.06;4992088;28;19924;-64
2022/03/02 06:42:12;;;;;;;;;;;0.10;60.60;;;-2.04;55.88;96629.22;4991848;28;19926;-66
2022/03/02 06:44:50;;;;;;;;;;;0.10;60.30;;;-2.02;55.40;96617.91;4942245;28;19926;-67
2022/03/02 06:47:18;;;;;;;;;;;0.10;60.10;;;-1.99;56.23;96627.19;4976016;28;20344;-68
2022/03/02 06:50:05;;;;;;;;;;;0.20;60.80;;;-1.96;56.08;96632.97;4991040;28;19972;-65
2022/03/02 06:52:33;;;;;;;;;;;0.30;60.50;;;-1.95;55.81;96624.31;4958277;28;19976;-63
2022/03/02 06:55:00;;;;;;;;;;;0.40;59.90;;;-1.92;55.60;96631.84;4990074;28;19926;-64
2022/03/02 06:57:27;;;;;;;;;;;0.40;58.80;;;-1.88;54.59;96635.03;4967276;28;19921;-62
2022/03/02 06:59:53;;;;;;;;;;;0.40;58.00;;;-1.84;54.00;96631.34;4967229;28;19921;-65
2022/03/02 07:02:38;;;;;;;;;;;0.50;57.70;;;-1.80;53.87;96626.81;4987966;28;19937;-66
2022/03/02 07:05:05;;;;;;;;;;;0.60;57.20;;;-1.73;53.41;96622.91;4988703;28;19980;-65
2022/03/02 07:07:30;;;;;;;;;;;0.60;56.90;;;-1.68;54.01;96626.00;4971952;28;19922;-65
2022/03/02 07:09:56;;;;;;;;;;;0.70;57.00;;;-1.63;54.26;96621.38;4990478;28;19933;-63
2022/03/02 07:12:22;;;;;;;;;;;0.80;56.70;;;-1.60;53.69;96614.25;4943057;28;19922;-67
2022/03/02 07:14:47;;;;;;;;;;;0.80;56.20;;;-1.55;54.12;96614.78;4966657;28;20420;-65
2022/03/02 07:17:13;;;;;;;;;;;0.90;57.00;;;-1.52;53.61;96616.34;4987930;28;19975;-66
2022/03/02 07:19:39;;;;;;;;;;;0.90;56.80;;;-1.45;53.91;96607.25;4971911;28;19998;-66
2022/03/02 07:22:05;;;;;;;;;;;1.00;56.70;;;-1.37;54.23;96604.97;4988490;28;19957;-66
2022/03/02 07:24:41;;;;;;;;;;;1.10;56.50;;;-1.24;54.26;96612.72;4989409;28;19930;-67
2022/03/02 07:27:06;;;;;;;;;;;1.40;56.20;;;-1.14;52.96;96600.00;4972083;28;19917;-64
2022/03/02 07:29:34;;;;;;;;;;;1.50;54.70;;;-1.10;52.50;96602.28;4973989;28;20455;-66
2022/03/02 07:32:00;;;;;;;;;;;1.60;54.20;;;-1.00;53.48;96605.06;4969543;28;19933;-66
2022/03/02 07:34:26;;;;;;;;;;;1.90;53.70;;;-0.83;53.00;96591.81;4953595;28;19938;-68
2022/03/02 07:36:52;;;;;;;;;;;2.20;53.40;;;-0.66;52.50;96595.81;4984125;28;19928;-65
2022/03/02 07:39:17;;;;;;;;;;;2.50;52.70;;;-0.47;52.87;96600.47;4972240;28;19921;-67
2022/03/02 07:41:43;;;;;;;;;;;2.80;52.50;;;-0.28;52.43;96595.66;4988798;28;19921;-67
2022/03/02 07:44:09;;;;;;;;;;;3.00;51.60;;;-0.10;51.93;96593.50;4973659;28;20382;-66
2022/03/02 07:46:35;;;;;;;;;;;3.20;50.50;;;0.09;51.44;96593.00;4955547;28;19932;-64
2022/03/02 07:49:01;;;;;;;;;;;3.50;49.90;;;0.27;51.28;96591.66;4956883;28;19930;-65
2022/03/02 07:51:26;;;;;;;;;;;3.70;49.40;;;0.44;50.96;96583.44;4988939;28;20274;-64
2022/03/02 07:53:55;;;;;;;;;;;4.10;49.00;;;0.65;50.72;96585.34;4972933;28;20313;-67
2022/03/02 07:56:21;;;;;;;;;;;4.40;47.60;;;0.86;49.68;96594.09;4954297;28;19922;-65
2022/03/02 07:58:47;;;;;;;;;;;4.60;46.90;;;1.04;49.30;96582.31;4971442;28;19922;-64
2022/03/02 08:01:14;;;;;;;;;;;4.70;46.60;;;1.20;49.12;96587.97;4988084;28;19976;-63
2022/03/02 08:03:40;;;;;;;;;;;4.80;45.90;;;1.37;48.66;96598.81;4961281;28;19929;-66
2022/03/02 08:06:06;;;;;;;;;;;4.80;45.60;;;1.51;48.83;96595.94;4959258;28;19926;-65
2022/03/02 08:08:32;;;;;;;;;;;4.90;46.10;;;1.62;49.14;96593.34;4955111;28;19918;-65
2022/03/02 08:10:58;;;;;;;;;;;4.90;46.90;;;1.74;49.50;96597.53;4957231;28;19933;-66
2022/03/02 08:13:24;;;;;;;;;;;5.00;47.20;;;1.84;49.41;96602.81;4970329;28;20016;-66
2022/03/02 08:15:50;;;;;;;;;;;5.10;47.30;;;1.92;48.78;96597.81;4972575;28;20035;-67
2022/03/02 08:18:15;;;;;;;;;;;5.20;47.00;;;1.98;49.62;96593.91;4987836;28;19929;-66
2022/03/02 08:20:48;;;;;;;;;;;5.30;47.30;;;2.03;49.07;96605.56;4988584;28;20443;-66
2022/03/02 08:23:14;;;;;;;;;;;5.40;46.70;;;2.08;48.81;96598.25;4972624;28;20012;-65
2022/03/02 08:25:40;;;;;;;;;;;5.60;46.30;;;2.20;49.18;96598.19;4961274;28;20312;-63
2022/03/02 08:28:09;;;;;;;;;;;5.80;45.90;;;2.38;48.75;96597.50;4969800;28;19930;-66
2022/03/02 08:30:36;;;;;;;;;;;6.20;45.60;;;2.56;48.36;96591.75;4989767;28;19922;-66
2022/03/02 08:33:02;;;;;;;;;;;6.40;44.50;;;2.68;48.07;96588.94;4970781;28;20308;-67
2022/03/02 08:35:30;;;;;;;;;;;6.40;43.60;;;2.78;47.15;96578.63;4972266;28;19917;-67
2022/03/02 08:37:56;;;;;;;;;;;6.50;43.00;;;2.87;46.79;96570.03;4969119;28;19922;-64
2022/03/02 08:40:22;;;;;;;;;;;6.70;42.70;;;3.01;47.09;96559.31;4988686;28;20334;-66
2022/03/02 08:42:49;;;;;;;;;;;6.80;42.70;;;3.17;47.44;96563.19;4974776;28;20001;-65
2022/03/02 08:45:16;;;;;;;;;;;7.00;42.30;;;3.33;46.96;96553.09;4988730;28;19922;-66
2022/03/02 08:47:41;;;;;;;;;;;7.20;42.10;;;3.49;46.41;96558.63;4983428;28;19972;-62
2022/03/02 08:50:08;;;;;;;;;;;7.30;41.40;;;3.73;45.20;96557.44;4989503;28;19921;-64
2022/03/02 08:52:34;;;;;;;;;;;7.60;40.50;;;3.87;44.66;96551.84;4979042;28;19929;-64
2022/03/02 08:55:00;;;;;;;;;;;7.70;39.70;;;4.04;44.61;96548.53;4987558;28;19926;-65
2022/03/02 08:57:26;;;;;;;;;;;7.80;39.50;;;4.16;43.04;96552.66;4986213;28;20396;-66
2022/03/02 08:59:52;;;;;;;;;;;7.70;38.50;;;4.28;43.41;96548.09;4969106;28;19918;-67
2022/03/02 09:02:19;;;;;;;;;;;7.90;38.20;;;4.44;42.86;96544.94;4959806;28;19922;-67
2022/03/02 09:04:45;;;;;;;;;;;8.20;37.50;;;4.59;42.69;96543.53;4971921;28;19922;-66
2022/03/02 09:07:11;;;;;;;;;;;8.30;37.40;;;4.72;41.73;96544.03;4985790;28;19925;-67
2022/03/02 09:09:38;;;;;;;;;;;8.50;36.10;;;4.90;41.65;96542.34;4953463;28;20386;-67
2022/03/02 09:12:04;;;;;;;;;;;8.80;35.50;;;5.13;41.70;96547.19;4969940;28;19929;-66
2022/03/02 09:14:30;;;;;;;;;;;9.10;35.60;;;5.33;40.99;96538.31;4986648;28;20001;-66
2022/03/02 09:16:56;;;;;;;;;;;9.40;35.00;;;5.44;41.33;96537.31;4978664;28;19974;-66
2022/03/02 09:19:21;;;;;;;;;;;9.30;34.90;;;5.52;40.75;96538.22;4984012;28;20292;-66
2022/03/02 09:21:47;;;;;;;;;;;9.30;35.10;;;5.62;41.06;96539.91;4986723;28;19928;-69
2022/03/02 09:24:13;;;;;;;;;;;9.40;34.90;;;5.72;40.61;96532.88;4986646;28;19930;-67
2022/03/02 09:26:39;;;;;;;;;;;9.40;35.10;;;5.82;40.81;96528.38;4969320;28;19968;-67
2022/03/02 09:29:05;;;;;;;;;;;9.40;35.10;;;5.91;40.71;96531.94;4987317;28;19928;-66
2022/03/02 09:31:32;;;;;;;;;;;9.40;35.70;;;5.94;40.57;96532.47;4965593;28;19922;-65
2022/03/02 09:34:00;;;;;;;;;;;9.20;35.90;;;5.92;40.95;96523.97;4961975;28;20551;-63
2022/03/02 09:36:26;;;;;;;;;;;9.10;35.90;;;5.90;40.53;96525.91;4985906;28;19964;-62
2022/03/02 09:38:52;;;;;;;;;;;9.00;36.30;;;5.86;40.44;96524.50;4989075;28;19998;-64
2022/03/02 09:41:28;;;;;;;;;;;8.80;36.60;;;5.85;40.81;96535.91;4979195;28;19938;-64
2022/03/02 09:43:55;;;;;;;;;;;8.80;36.70;;;5.85;40.79;96533.31;4972019;28;19917;-63
2022/03/02 09:46:27;;;;;;;;;;;8.90;36.60;;;5.85;40.48;96528.06;4965912;28;20314;-67
2022/03/02 09:48:53;;;;;;;;;;;9.10;35.60;;;5.91;39.95;96530.16;4949687;28;19930;-65
2022/03/02 09:51:22;;;;;;;;;;;9.50;35.00;;;6.04;40.76;96530.56;4979516;28;19988;-65
2022/03/02 09:53:54;;;;;;;;;;;9.80;34.50;;;6.18;40.47;96536.25;4985309;28;20400;-63
2022/03/02 09:56:22;;;;;;;;;;;9.90;34.60;;;6.33;41.17;96532.09;4986657;28;19922;-64
2022/03/02 09:58:50;;;;;;;;;;;10.10;34.80;;;6.39;40.40;96527.13;4986487;28;19923;-68
2022/03/02 10:01:16;;;;;;;;;;;10.00;34.60;;;6.43;39.76;96527.63;4975005;28;20009;-65
2022/03/02 10:03:46;;;;;;;;;;;10.00;34.60;;;6.51;40.52;96524.25;4952001;28;19936;-69
2022/03/02 10:06:12;;;;;;;;;;;10.10;35.10;;;6.57;40.41;96523.66;4970636;28;19949;-66
2022/03/02 10:08:39;;;;;;;;;;;10.20;35.10;;;6.72;41.01;96522.09;4985136;28;19975;-65
2022/03/02 10:11:06;;;;;;;;;;;10.60;34.90;;;6.83;40.54;96519.22;4967091;28;19922;-66
2022/03/02 10:13:32;;;;;;;;;;;10.70;34.60;;;6.97;39.31;96517.81;4954691;28;19918;-65
2022/03/02 10:15:58;;;;;;;;;;;11.10;33.20;;;7.12;39.47;96515.44;4982470;28;19952;-69
2022/03/02 10:18:25;;;;;;;;;;;11.40;33.10;;;7.32;39.20;96509.78;4989366;28;20366;-68
2022/03/02 10:20:53;;;;;;;;;;;11.60;32.60;;;7.57;39.32;96504.63;4950533;28;19946;-66
2022/03/02 10:23:39;;;;;;;;;;;12.30;31.50;;;7.79;38.84;96508.44;4958037;28;20394;-67
2022/03/02 10:26:16;;;;;;;;;;;12.70;30.60;;;7.96;38.71;96510.09;4990513;28;20032;-64
2022/03/02 10:29:04;;;;;;;;;;;12.90;30.30;;;8.27;38.11;96510.25;4990627;28;19921;-67
2022/03/02 10:32:05;;;;;;;;;;;13.60;29.20;;;8.64;37.32;96512.41;4983391;28;19922;-66
2022/03/02 10:34:32;;;;;;;;;;;14.30;28.10;;;9.04;37.55;96503.59;4989404;28;19972;-67
2022/03/02 10:37:07;;;;;;;;;;;15.00;27.00;;;9.37;36.00;96500.84;4990100;28;19928;-67
2022/03/02 10:39:51;;;;;;;;;;;15.30;26.40;;;9.67;37.21;96505.28;4998469;28;19926;-69
2022/03/02 10:42:25;;;;;;;;;;;15.40;26.60;;;9.85;36.40;96496.31;4964623;28;20019;-66
2022/03/02 10:44:59;;;;;;;;;;;15.10;26.50;;;9.95;34.97;96502.13;4961372;28;19977;-68
2022/03/02 10:47:24;;;;;;;;;;;14.90;26.60;;;10.04;35.41;96495.84;4987531;28;20336;-65
2022/03/02 10:49:52;;;;;;;;;;;14.80;26.60;;;10.09;35.72;96504.84;4981891;28;19922;-67
2022/03/02 10:52:20;;;;;;;;;;;14.80;26.40;;;10.19;34.99;96498.53;4988864;28;19937;-66
2022/03/02 10:54:45;;;;;;;;;;;15.10;25.90;;;10.25;35.15;96492.59;4988928;28;20486;-67
2022/03/02 10:57:11;;;;;;;;;;;14.80;25.80;;;10.22;35.10;96487.69;4970672;28;19922;-66
2022/03/02 10:59:37;;;;;;;;;;;14.60;25.70;;;10.30;34.46;96480.53;4979394;28;19933;-67
2022/03/02 11:02:03;;;;;;;;;;;14.90;25.80;;;10.38;34.63;96475.22;4958360;28;19921;-66
2022/03/02 11:04:29;;;;;;;;;;;15.00;25.40;;;10.54;34.67;96473.44;4987618;28;19963;-65
2022/03/02 11:06:54;;;;;;;;;;;15.40;25.20;;;10.57;33.95;96478.31;4969247;28;20198;-66
2022/03/02 11:09:20;;;;;;;;;;;15.10;25.30;;;10.70;33.75;96465.38;4954003;28;20302;-66
2022/03/02 11:11:46;;;;;;;;;;;15.40;25.20;;;10.79;33.89;96463.47;4966792;28;19943;-65
2022/03/02 11:14:12;;;;;;;;;;;15.40;25.10;;;10.91;33.54;96468.13;4972643;28;19929;-66
2022/03/02 11:16:38;;;;;;;;;;;15.70;24.70;;;11.03;33.79;96458.75;4971432;28;19925;-68